Time;durP1;ratioP1;P1;durP2;ratioP2;P2;SDS_P1;SDS_P2;PMS_P1;PMS_P2;Temp;Humidity;BMP_temperature;BMP_pressure;BME280_temperature;BME280_humidity;BME280_pressure;Samples;Min_cycle;Max_cycle;Signal;HPM_P1;HPM_P2
2022/12/24 00:00:26;;;;;;;;;6.33;5.67;;;;;13.36;68.90;100499.69;5053990;28;45471;-61
2022/12/24 00:02:52;;;;;;;;;10.00;7.33;;;;;13.21;68.78;100482.75;5054253;28;45373;-60
2022/12/24 00:05:17;;;;;;;;;7.33;5.00;;;;;13.35;69.06;100510.31;5054013;28;45437;-61
2022/12/24 00:07:43;;;;;;;;;7.67;5.00;;;;;13.36;69.19;100499.69;5052544;28;46353;-61
2022/12/24 00:10:09;;;;;;;;;5.00;3.67;;;;;13.39;69.14;100509.25;5054284;28;45521;-61
2022/12/24 00:12:35;;;;;;;;;8.33;7.00;;;;;13.39;68.73;100499.53;5052902;28;45397;-62
2022/12/24 00:15:01;;;;;;;;;9.00;5.33;;;;;13.39;68.81;100507.47;5054088;28;45478;-61
2022/12/24 00:17:26;;;;;;;;;11.33;7.00;;;;;13.41;69.09;100513.53;5053972;28;45423;-60
2022/12/24 00:19:51;;;;;;;;;8.00;7.33;;;;;13.31;68.76;100482.34;5053818;28;45414;-61
2022/12/24 00:22:17;;;;;;;;;8.33;5.00;;;;;13.41;69.25;100497.69;5050587;28;45911;-61
2022/12/24 00:24:42;;;;;;;;;6.00;5.67;;;;;13.40;68.66;100505.66;5052045;28;45593;-60
2022/12/24 00:27:07;;;;;;;;;5.67;4.33;;;;;13.33;68.94;100504.28;5049014;28;46667;-61
2022/12/24 00:29:33;;;;;;;;;7.33;6.67;;;;;13.39;68.90;100517.19;5051946;28;45481;-61
2022/12/24 00:31:58;;;;;;;;;6.00;4.00;;;;;13.37;68.90;100511.97;5053337;28;45499;-61
2022/12/24 00:34:24;;;;;;;;;6.00;4.00;;;;;13.38;68.85;100508.41;5051917;28;45437;-61
2022/12/24 00:36:50;;;;;;;;;6.33;6.33;;;;;13.34;68.59;100506.81;5051548;28;46419;-62
2022/12/24 00:39:15;;;;;;;;;7.33;6.00;;;;;13.36;68.91;100509.41;5043819;28;45563;-61
2022/12/24 00:41:40;;;;;;;;;5.67;5.00;;;;;13.34;68.82;100508.63;5048963;28;45497;-61
2022/12/24 00:44:09;;;;;;;;;4.67;3.00;;;;;13.34;68.80;100524.47;5053097;28;45465;-61
2022/12/24 00:46:38;;;;;;;;;6.67;6.00;;;;;13.29;68.97;100529.97;5052815;28;46123;-61
2022/12/24 00:49:04;;;;;;;;;9.33;5.67;;;;;13.26;68.92;100538.03;5052748;28;45486;-60
2022/12/24 00:51:31;;;;;;;;;12.33;7.67;;;;;13.32;68.87;100545.66;5050871;28;45430;-61
2022/12/24 00:53:56;;;;;;;;;6.00;4.67;;;;;13.29;69.00;100537.88;5053001;28;45465;-61
2022/12/24 00:56:22;;;;;;;;;6.67;5.67;;;;;13.32;69.14;100521.88;5042772;28;46995;-61
2022/12/24 00:58:47;;;;;;;;;7.33;5.67;;;;;13.31;69.01;100527.25;5050731;28;45923;-61
2022/12/24 01:01:14;;;;;;;;;7.00;5.67;;;;;13.23;68.84;100524.94;5056512;28;45533;-61
2022/12/24 01:03:39;;;;;;;;;5.33;5.33;;;;;13.24;69.26;100556.56;5056283;28;45465;-61
2022/12/24 01:06:08;;;;;;;;;7.33;4.00;;;;;13.19;68.87;100548.00;5052867;28;45473;-61
2022/12/24 01:08:34;;;;;;;;;5.00;3.00;;;;;13.22;69.36;100550.50;5051053;28;45477;-61
2022/12/24 01:11:01;;;;;;;;;8.33;7.33;;;;;13.21;68.91;100550.56;5053086;28;45505;-61
2022/12/24 01:13:27;;;;;;;;;6.50;4.50;;;;;13.16;68.90;100544.63;5047976;28;45474;-61
2022/12/24 01:15:53;;;;;;;;;5.67;5.67;;;;;13.17;69.57;100527.88;5055899;28;46065;-61
2022/12/24 01:18:18;;;;;;;;;5.33;4.33;;;;;13.20;69.39;100539.16;5056800;28;45475;-62
2022/12/24 01:20:44;;;;;;;;;7.33;4.67;;;;;13.15;69.82;100529.75;5056474;28;45513;-61
2022/12/24 01:23:09;;;;;;;;;10.00;7.67;;;;;13.13;69.61;100526.31;5054519;28;45456;-62
2022/12/24 01:25:37;;;;;;;;;10.00;7.67;;;;;13.17;69.70;100525.25;5056318;28;45532;-61
2022/12/24 01:28:03;;;;;;;;;7.00;6.00;;;;;13.17;69.87;100530.53;5056185;28;45569;-61
2022/12/24 01:30:28;;;;;;;;;8.67;6.67;;;;;13.16;69.59;100544.63;5055985;28;45537;-62
2022/12/24 01:32:54;;;;;;;;;5.67;4.33;;;;;13.16;69.57;100552.56;5055599;28;45540;-63
2022/12/24 01:35:19;;;;;;;;;7.33;5.00;;;;;13.12;70.12;100554.50;5038428;28;46439;-61
2022/12/24 01:37:44;;;;;;;;;5.00;4.67;;;;;13.07;69.74;100548.56;5047374;28;45418;-62
2022/12/24 01:45:48;;;;;;;;;5.67;3.67;;;;;13.09;70.00;100546.72;5055454;28;45881;-61
2022/12/24 01:48:13;;;;;;;;;5.67;3.67;;;;;13.08;70.17;100549.41;5044702;28;45532;-62
2022/12/24 01:50:38;;;;;;;;;4.00;3.33;;;;;13.09;69.70;100556.44;5041054;28;45449;-63
2022/12/24 01:53:05;;;;;;;;;8.33;7.00;;;;;13.01;70.58;100559.44;5055702;28;45481;-61
2022/12/24 01:55:30;;;;;;;;;6.67;3.00;;;;;12.98;70.58;100551.66;5055447;28;45657;-61
2022/12/24 01:57:58;;;;;;;;;5.67;4.33;;;;;13.00;70.22;100573.53;5055574;28;45631;-60
2022/12/24 02:00:24;;;;;;;;;6.67;6.67;;;;;12.98;70.18;100573.63;5055672;28;45535;-61
2022/12/24 02:02:52;;;;;;;;;5.67;5.67;;;;;13.03;69.89;100582.19;5054126;28;45472;-61
2022/12/24 02:05:35;;;;;;;;;6.67;4.67;;;;;13.03;70.59;100579.56;5050139;28;45521;-62
2022/12/24 02:08:02;;;;;;;;;5.67;5.67;;;;;13.02;70.56;100577.81;5053919;28;45484;-61
2022/12/24 02:10:28;;;;;;;;;6.00;3.67;;;;;13.03;70.60;100595.41;5049273;28;45489;-61
2022/12/24 02:12:54;;;;;;;;;8.00;6.00;;;;;13.01;70.74;100586.69;5054032;28;45426;-61
2022/12/24 02:15:20;;;;;;;;;13.00;7.00;;;;;13.03;70.74;100584.84;5055366;28;46657;-62
2022/12/24 02:18:22;;;;;;;;;12.00;7.67;;;;;13.05;70.84;100584.75;5055205;28;45478;-62
2022/12/24 02:21:13;;;;;;;;;7.00;6.67;;;;;13.03;70.48;100589.25;5055286;28;45516;-58
2022/12/24 02:24:06;;;;;;;;;10.67;7.00;;;;;12.99;70.40;100577.97;5055640;28;45597;-62
2022/12/24 02:26:43;;;;;;;;;11.67;8.00;;;;;12.98;71.01;100581.53;5042570;28;45566;-59
2022/12/24 02:29:09;;;;;;;;;8.33;6.00;;;;;12.98;70.76;100586.81;5053749;28;45500;-60
2022/12/24 02:31:44;;;;;;;;;6.33;4.67;;;;;12.98;70.57;100581.53;5042434;28;45537;-59
2022/12/24 02:34:18;;;;;;;;;9.33;9.33;;;;;13.00;70.77;100599.94;5045114;28;45493;-59
2022/12/24 02:36:56;;;;;;;;;5.33;5.33;;;;;12.99;70.66;100582.38;5038300;28;45493;-59
2022/12/24 02:39:45;;;;;;;;;7.00;5.33;;;;;13.02;70.82;100580.47;5055076;28;45444;-60
2022/12/24 02:42:14;;;;;;;;;8.33;7.00;;;;;12.96;70.80;100562.28;5053840;28;45623;-59
2022/12/24 02:44:54;;;;;;;;;6.67;6.67;;;;;13.05;70.89;100567.13;5055113;28;45560;-59
2022/12/24 02:47:24;;;;;;;;;9.33;5.00;;;;;13.04;70.83;100573.34;5052703;28;45577;-59
2022/12/24 02:49:49;;;;;;;;;4.50;4.50;;;;;13.03;70.55;100574.28;5054510;28;45526;-60
2022/12/24 02:52:35;;;;;;;;;6.33;4.67;;;;;13.03;71.09;100584.84;5054908;28;45409;-61
2022/12/24 02:55:06;;;;;;;;;6.00;4.67;;;;;13.09;70.58;100596.03;5055046;28;45511;-60
2022/12/24 02:57:50;;;;;;;;;10.67;7.33;;;;;13.10;70.52;100587.19;5053222;28;45550;-60
2022/12/24 03:00:21;;;;;;;;;7.67;7.00;;;;;13.08;70.34;100575.81;5055176;28;45568;-60
2022/12/24 03:03:08;;;;;;;;;5.00;4.33;;;;;13.08;70.72;100571.41;5055141;28;45479;-59
2022/12/24 03:05:47;;;;;;;;;8.00;6.00;;;;;13.07;70.25;100568.84;5049395;28;45502;-59
2022/12/24 03:08:34;;;;;;;;;4.67;3.67;;;;;13.10;70.14;100574.81;5052131;28;46413;-60
2022/12/24 03:11:08;;;;;;;;;11.00;7.00;;;;;12.94;70.70;100547.44;5053841;28;45489;-59
2022/12/24 03:13:33;;;;;;;;;7.00;5.00;;;;;13.08;70.36;100567.91;5045718;28;45489;-60
2022/12/24 03:16:02;;;;;;;;;5.00;4.00;;;;;13.05;70.85;100564.47;5054671;28;45457;-60
2022/12/24 03:18:29;;;;;;;;;6.33;6.33;;;;;13.09;70.51;100567.84;5054482;28;46745;-60
2022/12/24 03:21:17;;;;;;;;;11.33;7.67;;;;;13.09;70.39;100567.00;5038509;28;45485;-60
2022/12/24 03:23:43;;;;;;;;;6.33;5.00;;;;;13.04;70.68;100557.50;5049414;28;45542;-59
2022/12/24 03:26:12;;;;;;;;;5.33;5.33;;;;;13.01;70.97;100547.06;5054600;28;45418;-61
2022/12/24 03:28:40;;;;;;;;;9.33;7.00;;;;;13.03;70.91;100542.59;5053137;28;46193;-59
2022/12/24 03:31:07;;;;;;;;;7.33;5.33;;;;;13.04;70.65;100546.09;5054115;28;45477;-59
2022/12/24 03:33:33;;;;;;;;;7.33;4.67;;;;;12.99;70.74;100551.56;5054717;28;45422;-59
2022/12/24 03:35:58;;;;;;;;;7.00;6.00;;;;;13.01;71.19;100549.72;5046803;28;45646;-60
2022/12/24 03:38:23;;;;;;;;;8.33;5.67;;;;;13.05;71.17;100550.41;5054210;28;45634;-59
2022/12/24 03:40:49;;;;;;;;;10.67;6.33;;;;;13.01;71.10;100559.44;5053874;28;45494;-59
2022/12/24 03:43:14;;;;;;;;;5.33;4.67;;;;;13.02;71.07;100566.41;5049946;28;45533;-60
2022/12/24 03:45:39;;;;;;;;;12.33;8.33;;;;;12.97;71.21;100563.97;5053936;28;45620;-60
2022/12/24 03:48:05;;;;;;;;;6.67;5.33;;;;;12.93;71.80;100572.13;5046776;28;46326;-60
2022/12/24 03:50:31;;;;;;;;;9.67;7.67;;;;;12.95;71.19;100579.03;5046778;28;45580;-59
2022/12/24 03:52:56;;;;;;;;;7.00;6.67;;;;;12.96;71.65;100583.38;5041553;28;45611;-60
2022/12/24 03:55:21;;;;;;;;;10.00;10.00;;;;;12.92;71.66;100576.56;5054288;28;45557;-59
2022/12/24 03:57:47;;;;;;;;;8.33;6.00;;;;;12.86;71.44;100566.25;5053698;28;45453;-60
2022/12/24 04:00:12;;;;;;;;;6.33;5.00;;;;;12.90;71.57;100573.13;5054217;28;45572;-60
2022/12/24 04:02:38;;;;;;;;;7.67;4.00;;;;;12.87;71.45;100570.63;5053992;28;45469;-60
2022/12/24 04:05:04;;;;;;;;;7.67;4.67;;;;;12.87;71.52;100575.91;5052471;28;45478;-60
2022/12/24 04:07:31;;;;;;;;;7.00;7.00;;;;;12.89;71.48;100583.72;5051592;28;46815;-60
2022/12/24 04:09:56;;;;;;;;;7.67;6.00;;;;;12.91;71.52;100585.38;5053655;28;45503;-60
2022/12/24 04:12:21;;;;;;;;;10.33;7.33;;;;;12.90;71.59;100583.69;5052370;28;45437;-60
2022/12/24 04:14:47;;;;;;;;;5.00;4.00;;;;;12.94;71.68;100597.59;5053834;28;45683;-60
2022/12/24 04:17:12;;;;;;;;;9.33;7.00;;;;;12.87;71.38;100591.75;5052397;28;45789;-60
2022/12/24 04:19:37;;;;;;;;;11.33;7.00;;;;;12.94;71.48;100605.50;5048837;28;45439;-60
2022/12/24 04:22:03;;;;;;;;;6.00;5.00;;;;;12.89;71.31;100604.84;5047948;28;45452;-59
2022/12/24 04:24:28;;;;;;;;;5.33;5.00;;;;;12.90;71.19;100607.44;5045239;28;45437;-60
2022/12/24 04:26:53;;;;;;;;;8.33;5.33;;;;;12.91;71.98;100616.19;5053354;28;45738;-60
2022/12/24 04:29:19;;;;;;;;;7.33;6.67;;;;;12.90;71.39;100618.00;5053678;28;45520;-60
2022/12/24 04:31:44;;;;;;;;;5.67;5.67;;;;;12.86;72.08;100619.03;5053879;28;45479;-59
2022/12/24 04:34:09;;;;;;;;;7.67;6.33;;;;;12.88;71.83;100621.63;5054565;28;45449;-59
2022/12/24 04:36:35;;;;;;;;;7.67;5.00;;;;;12.85;71.44;100612.06;5049814;28;46329;-59
2022/12/24 04:39:00;;;;;;;;;6.67;4.33;;;;;12.83;71.34;100622.66;5057014;28;45485;-61
2022/12/24 04:41:25;;;;;;;;;7.67;4.33;;;;;12.81;71.38;100614.00;5057018;28;45470;-60
2022/12/24 04:43:53;;;;;;;;;8.67;6.00;;;;;12.86;71.62;100621.69;5057231;28;45583;-59
2022/12/24 04:46:21;;;;;;;;;10.00;7.33;;;;;12.85;72.07;100633.16;5057185;28;46414;-60
2022/12/24 04:48:48;;;;;;;;;7.00;6.33;;;;;12.79;71.49;100633.44;5055723;28;45426;-60
2022/12/24 04:51:14;;;;;;;;;8.67;7.00;;;;;12.78;71.99;100626.44;5056785;28;45413;-59
2022/12/24 04:53:41;;;;;;;;;5.00;5.00;;;;;12.83;71.60;100638.50;5057115;28;45639;-59
2022/12/24 04:56:10;;;;;;;;;5.67;4.00;;;;;12.81;71.71;100635.09;5055530;28;45622;-59
2022/12/24 04:58:35;;;;;;;;;8.33;6.33;;;;;12.81;71.68;100632.47;5056877;28;45449;-60
2022/12/24 05:01:05;;;;;;;;;5.00;5.00;;;;;12.80;71.83;100630.72;5056893;28;45418;-59
2022/12/24 05:03:31;;;;;;;;;10.67;7.67;;;;;12.84;71.77;100636.72;5055364;28;45607;-59
2022/12/24 05:06:01;;;;;;;;;12.33;5.00;;;;;12.83;72.04;100645.56;5052460;28;45532;-60
2022/12/24 05:08:27;;;;;;;;;7.00;4.00;;;;;12.84;72.01;100652.56;5054469;28;45436;-60
2022/12/24 05:10:58;;;;;;;;;8.33;7.00;;;;;12.82;72.15;100638.59;5056379;28;45454;-60
2022/12/24 05:13:24;;;;;;;;;5.33;5.00;;;;;12.83;72.28;100646.44;5056525;28;45505;-59
2022/12/24 05:15:50;;;;;;;;;6.00;6.00;;;;;12.85;72.22;100653.44;5056145;28;45456;-60
2022/12/24 05:18:15;;;;;;;;;7.33;5.67;;;;;12.77;71.87;100636.16;5056525;28;45575;-60
2022/12/24 05:20:40;;;;;;;;;7.67;4.33;;;;;12.86;71.88;100640.16;5056795;28;45477;-60
2022/12/24 05:28:34;;;;;;;;;7.67;6.67;;;;;12.83;72.61;100645.56;5056313;28;45526;-59
2022/12/24 05:30:59;;;;;;;;;9.33;8.00;;;;;12.84;72.46;100639.34;5054845;28;45581;-60
2022/12/24 05:33:25;;;;;;;;;7.33;5.67;;;;;12.85;72.74;100624.41;5052325;28;45928;-60
2022/12/24 05:35:51;;;;;;;;;8.00;5.00;;;;;12.84;72.75;100620.88;5046453;28;46265;-60
2022/12/24 05:38:16;;;;;;;;;7.00;7.00;;;;;12.90;72.09;100632.97;5056286;28;45562;-60
2022/12/24 05:40:42;;;;;;;;;8.00;6.67;;;;;12.87;72.42;100626.06;5056043;28;45493;-60
2022/12/24 05:43:07;;;;;;;;;14.67;7.00;;;;;12.87;72.37;100615.50;5054838;28;45520;-60
2022/12/24 05:45:32;;;;;;;;;7.00;6.00;;;;;12.89;72.19;100620.69;5056028;28;45512;-60
2022/12/24 05:47:57;;;;;;;;;15.67;9.33;;;;;12.86;72.73;100623.47;5047034;28;45468;-60
2022/12/24 05:50:23;;;;;;;;;8.00;7.00;;;;;12.87;72.93;100623.41;5054733;28;45335;-60
2022/12/24 05:52:48;;;;;;;;;5.33;5.00;;;;;12.81;72.85;100610.47;5056339;28;45473;-60
2022/12/24 05:55:14;;;;;;;;;8.00;6.67;;;;;12.83;73.29;100613.91;5053328;28;47056;-61
2022/12/24 05:57:40;;;;;;;;;7.33;7.33;;;;;12.89;72.99;100618.91;5055560;28;45549;-60
2022/12/24 06:00:06;;;;;;;;;6.00;5.00;;;;;12.85;72.70;100604.13;5054878;28;45534;-60
2022/12/24 06:02:31;;;;;;;;;8.33;5.67;;;;;12.90;72.72;100609.22;5055862;28;45517;-60
2022/12/24 06:04:56;;;;;;;;;9.33;5.33;;;;;12.86;72.62;100613.75;5052679;28;46349;-60
2022/12/24 06:07:22;;;;;;;;;11.00;8.67;;;;;12.87;73.33;100609.34;5055715;28;45450;-60
2022/12/24 06:09:47;;;;;;;;;4.00;3.67;;;;;12.85;72.97;100601.50;5054053;28;45510;-60
2022/12/24 06:12:12;;;;;;;;;4.00;3.00;;;;;12.82;72.73;100591.94;5051302;28;45414;-60
2022/12/24 06:14:38;;;;;;;;;8.00;5.67;;;;;12.89;72.43;100610.13;5055749;28;45418;-60
2022/12/24 06:17:03;;;;;;;;;6.00;5.33;;;;;12.85;72.93;100614.69;5055817;28;45465;-60
2022/12/24 06:19:28;;;;;;;;;7.00;4.00;;;;;12.83;72.65;100632.38;5053950;28;45524;-60
2022/12/24 06:21:54;;;;;;;;;8.00;5.33;;;;;12.81;73.01;100626.31;5051441;28;45648;-60
2022/12/24 06:24:19;;;;;;;;;6.00;4.67;;;;;12.80;73.18;100624.59;5041122;28;45469;-60
2022/12/24 06:26:44;;;;;;;;;6.00;5.00;;;;;12.77;72.63;100622.94;5048303;28;45800;-60
2022/12/24 06:29:10;;;;;;;;;5.00;5.00;;;;;12.75;72.56;100622.16;5047396;28;45505;-60
2022/12/24 06:31:36;;;;;;;;;11.67;7.67;;;;;12.74;73.14;100619.59;5055321;28;45703;-60
2022/12/24 06:34:01;;;;;;;;;8.00;4.00;;;;;12.68;72.65;100607.53;5051526;28;45488;-60
2022/12/24 06:36:26;;;;;;;;;6.00;4.67;;;;;12.74;72.66;100607.25;5052610;28;45472;-60
2022/12/24 06:38:53;;;;;;;;;5.00;4.33;;;;;12.77;72.33;100608.91;5055480;28;45390;-60
2022/12/24 06:41:19;;;;;;;;;12.00;4.00;;;;;12.78;72.44;100607.97;5055477;28;45675;-60
2022/12/24 06:43:47;;;;;;;;;4.33;2.33;;;;;12.78;71.89;100605.31;5052000;28;46002;-60
2022/12/24 06:46:13;;;;;;;;;6.00;3.67;;;;;12.80;72.29;100608.75;5041982;28;45415;-60
2022/12/24 06:48:39;;;;;;;;;3.00;3.00;;;;;12.81;71.74;100607.81;5054963;28;45482;-60
2022/12/24 06:51:04;;;;;;;;;5.00;3.33;;;;;12.78;71.88;100600.91;5054640;28;45648;-60
2022/12/24 06:53:30;;;;;;;;;3.67;3.00;;;;;12.79;71.68;100607.91;5054567;28;47023;-61
2022/12/24 06:56:10;;;;;;;;;4.33;2.00;;;;;12.78;71.72;100610.59;5052424;28;45497;-59
2022/12/24 06:58:36;;;;;;;;;3.33;3.33;;;;;12.74;71.41;100607.25;5054743;28;45752;-60
2022/12/24 07:01:04;;;;;;;;;2.67;2.67;;;;;12.77;71.12;100612.38;5054544;28;45557;-60
2022/12/24 07:03:30;;;;;;;;;3.33;3.00;;;;;12.78;71.04;100607.97;5052571;28;46160;-60
2022/12/24 07:05:56;;;;;;;;;3.00;3.00;;;;;12.74;71.50;100616.97;5046116;28;45484;-60
2022/12/24 07:08:22;;;;;;;;;6.00;4.00;;;;;12.73;71.24;100620.50;5050679;28;45426;-61
2022/12/24 07:10:49;;;;;;;;;4.00;3.00;;;;;12.71;71.13;100612.66;5051855;28;45668;-60
2022/12/24 07:13:15;;;;;;;;;3.00;3.00;;;;;12.68;71.13;100619.84;5052378;28;45592;-59
2022/12/24 07:15:40;;;;;;;;;3.00;3.00;;;;;12.66;71.38;100613.81;5049294;28;45962;-60
2022/12/24 07:18:05;;;;;;;;;3.00;3.00;;;;;12.66;71.45;100611.16;5039424;28;45511;-60
2022/12/24 07:20:31;;;;;;;;;3.67;3.00;;;;;12.62;71.29;100620.97;5053314;28;45618;-59
2022/12/24 07:22:56;;;;;;;;;1.00;1.00;;;;;12.56;71.08;100627.38;5039451;28;46290;-60
2022/12/24 07:25:22;;;;;;;;;4.00;3.00;;;;;12.54;70.74;100628.38;5053349;28;45484;-59
2022/12/24 07:27:47;;;;;;;;;3.00;3.00;;;;;12.54;71.01;100628.38;5054663;28;45492;-59
2022/12/24 07:30:12;;;;;;;;;3.00;2.00;;;;;12.55;71.24;100630.09;5050614;28;45492;-60
2022/12/24 07:32:38;;;;;;;;;4.00;2.33;;;;;12.54;71.20;100623.09;5042750;28;46467;-60
2022/12/24 07:35:03;;;;;;;;;1.00;1.00;;;;;12.50;71.33;100622.38;5047847;28;45493;-63
2022/12/24 07:37:29;;;;;;;;;2.67;1.67;;;;;12.41;70.76;100611.34;5042394;28;45456;-59
2022/12/24 07:39:54;;;;;;;;;2.00;2.00;;;;;12.58;70.47;100633.44;5054547;28;45549;-60
2022/12/24 07:42:20;;;;;;;;;2.67;2.67;;;;;12.58;71.18;100637.88;5052605;28;47559;-61
2022/12/24 07:44:45;;;;;;;;;2.00;2.00;;;;;12.56;70.36;100635.28;5054050;28;45488;-59
2022/12/24 07:47:11;;;;;;;;;2.67;2.67;;;;;12.58;70.66;100643.16;5044016;28;45481;-59
2022/12/24 07:49:36;;;;;;;;;2.00;2.00;;;;;12.63;70.70;100649.09;5051440;28;45431;-59
2022/12/24 07:52:03;;;;;;;;;6.33;2.00;;;;;12.58;70.06;100632.59;5048831;28;46457;-64
2022/12/24 07:54:28;;;;;;;;;3.67;2.33;;;;;12.55;70.94;100641.50;5043386;28;45782;-64
2022/12/24 07:56:53;;;;;;;;;3.00;1.67;;;;;12.59;71.04;100653.63;5041600;28;45873;-61
2022/12/24 07:59:19;;;;;;;;;4.00;3.00;;;;;12.60;70.78;100652.72;5040532;28;45515;-61
2022/12/24 08:01:44;;;;;;;;;3.33;3.00;;;;;12.57;70.34;100647.56;5043074;28;45562;-60
2022/12/24 08:04:10;;;;;;;;;1.00;1.00;;;;;12.57;70.62;100652.84;5044305;28;45492;-60
2022/12/24 08:06:35;;;;;;;;;2.33;1.00;;;;;12.55;70.87;100657.34;5045324;28;46415;-60
2022/12/24 08:09:01;;;;;;;;;2.00;2.00;;;;;12.59;70.64;100660.69;5037670;28;45580;-61
2022/12/24 08:11:26;;;;;;;;;1.67;1.67;;;;;12.57;70.99;100660.78;5044745;28;46892;-60
2022/12/24 08:13:51;;;;;;;;;2.00;2.00;;;;;12.56;70.05;100650.25;5037426;28;45530;-62
2022/12/24 08:16:17;;;;;;;;;1.33;1.33;;;;;12.54;71.22;100660.88;5037694;28;45403;-61
2022/12/24 08:18:42;;;;;;;;;2.33;2.00;;;;;12.51;70.80;100653.09;5038216;28;45572;-60
2022/12/24 08:21:08;;;;;;;;;1.33;1.00;;;;;12.56;71.04;100672.22;5035833;28;47074;-62
2022/12/24 08:23:35;;;;;;;;;1.00;1.00;;;;;12.56;70.97;100674.00;5041533;28;45494;-60
2022/12/24 08:26:00;;;;;;;;;2.00;2.00;;;;;12.58;70.49;100673.03;5051355;28;45542;-60
2022/12/24 08:28:26;;;;;;;;;3.00;1.33;;;;;12.60;70.88;100679.09;5044988;28;45617;-61
2022/12/24 08:30:52;;;;;;;;;4.67;3.33;;;;;12.56;70.54;100682.78;5048660;28;45427;-60
2022/12/24 08:33:18;;;;;;;;;1.00;1.00;;;;;12.54;70.39;100681.97;5050751;28;45545;-61
2022/12/24 08:35:53;;;;;;;;;5.67;3.00;;;;;12.44;70.58;100680.66;5054123;28;45478;-64
2022/12/24 08:38:19;;;;;;;;;4.67;4.00;;;;;12.52;70.90;100712.88;5053092;28;45430;-63
2022/12/24 08:40:47;;;;;;;;;4.67;3.00;;;;;12.51;70.44;100697.09;5054047;28;46745;-62
2022/12/24 08:43:13;;;;;;;;;4.67;4.00;;;;;12.55;71.36;100706.59;5056995;28;45525;-65
2022/12/24 08:45:39;;;;;;;;;1.00;1.00;;;;;12.58;70.73;100709.97;5045985;28;45411;-63
2022/12/24 08:48:05;;;;;;;;;1.00;1.00;;;;;12.52;70.95;100707.59;5057149;28;45658;-62
2022/12/24 08:50:30;;;;;;;;;2.67;2.67;;;;;12.49;71.17;100701.56;5056236;28;45610;-65
2022/12/24 08:52:55;;;;;;;;;4.67;2.00;;;;;12.56;70.53;100718.88;5056570;28;45469;-62
2022/12/24 08:55:21;;;;;;;;;1.67;1.67;;;;;12.55;71.01;100719.78;5056975;28;45560;-67
2022/12/24 08:57:46;;;;;;;;;3.33;1.67;;;;;12.54;70.86;100720.69;5056944;28;45813;-65
2022/12/24 09:00:12;;;;;;;;;2.67;2.00;;;;;12.55;70.69;100720.66;5050078;28;45551;-68
2022/12/24 09:02:38;;;;;;;;;2.67;2.67;;;;;12.58;70.36;100732.84;5052487;28;45461;-63
2022/12/24 09:05:04;;;;;;;;;2.00;2.00;;;;;12.60;70.38;100731.88;5052761;28;45770;-66
2022/12/24 09:07:29;;;;;;;;;1.67;1.00;;;;;12.60;70.60;100733.66;5052534;28;45519;-65
2022/12/24 09:09:54;;;;;;;;;4.67;2.00;;;;;12.64;70.26;100744.94;5041040;28;46835;-65
2022/12/24 09:12:20;;;;;;;;;3.00;3.00;;;;;12.58;70.46;100736.34;5063174;27;45428;-66
2022/12/24 09:14:45;;;;;;;;;3.00;2.00;;;;;12.66;70.54;100751.88;5054475;28;45794;-65
2022/12/24 09:17:10;;;;;;;;;3.33;2.33;;;;;12.68;70.60;100759.69;5049571;28;45644;-65
2022/12/24 09:19:36;;;;;;;;;1.00;1.00;;;;;12.60;70.72;100736.28;5045161;28;46704;-67
2022/12/24 09:22:01;;;;;;;;;3.33;2.00;;;;;12.70;70.62;100760.50;5056097;28;45472;-64
2022/12/24 09:24:27;;;;;;;;;2.33;2.33;;;;;12.69;70.48;100759.66;5043349;28;46040;-67
2022/12/24 09:26:52;;;;;;;;;2.67;2.67;;;;;12.65;70.84;100757.19;5048420;28;45787;-65
2022/12/24 09:29:18;;;;;;;;;1.67;1.67;;;;;12.70;71.03;100771.91;5049025;28;45674;-65
2022/12/24 09:31:43;;;;;;;;;1.00;1.00;;;;;12.67;70.88;100771.19;5055758;28;45941;-61
2022/12/24 09:34:08;;;;;;;;;4.67;3.00;;;;;12.65;70.33;100773.88;5067348;27;45488;-62
2022/12/24 09:36:34;;;;;;;;;3.00;3.00;;;;;12.71;71.02;100786.00;5056356;28;45596;-62
2022/12/24 09:39:00;;;;;;;;;3.67;3.00;;;;;12.66;70.39;100780.88;5056308;28;45611;-61
2022/12/24 09:41:34;;;;;;;;;4.00;3.00;;;;;12.69;70.76;100780.75;5055514;28;45413;-61
2022/12/24 09:44:20;;;;;;;;;3.00;2.00;;;;;12.64;70.98;100777.44;5053850;28;45480;-61
2022/12/24 09:46:49;;;;;;;;;3.33;2.00;;;;;12.62;70.60;100763.44;5056266;28;45505;-61
2022/12/24 09:49:27;;;;;;;;;4.00;2.67;;;;;12.64;70.52;100769.53;5055526;28;45501;-63
2022/12/24 09:52:03;;;;;;;;;2.33;2.00;;;;;12.65;70.88;100768.59;5056049;28;45566;-63
2022/12/24 09:54:34;;;;;;;;;4.67;2.67;;;;;12.64;71.17;100758.97;5056377;28;45490;-63
2022/12/24 09:57:07;;;;;;;;;3.33;1.67;;;;;12.68;70.38;100759.69;5053484;28;45556;-62
2022/12/24 09:59:42;;;;;;;;;2.00;2.00;;;;;12.58;70.55;100752.19;5036248;28;45519;-61
2022/12/24 10:02:14;;;;;;;;;1.67;1.00;;;;;12.64;71.31;100766.03;5039042;28;45457;-61
2022/12/24 10:04:41;;;;;;;;;1.00;1.00;;;;;12.62;70.95;100757.31;5041394;28;45655;-58
2022/12/24 10:07:28;;;;;;;;;1.33;1.33;;;;;12.63;70.87;100766.94;5053574;28;45468;-66
2022/12/24 10:10:15;;;;;;;;;2.00;2.00;;;;;12.65;71.15;100773.03;5043260;28;45923;-61
2022/12/24 10:13:03;;;;;;;;;4.00;3.67;;;;;12.65;71.21;100773.03;5046127;28;45478;-58
2022/12/24 10:15:38;;;;;;;;;1.67;1.67;;;;;12.64;71.25;100769.53;5054255;28;45516;-62
2022/12/24 10:18:03;;;;;;;;;2.33;2.33;;;;;12.66;71.09;100774.75;5055611;28;45517;-61
2022/12/24 10:20:29;;;;;;;;;2.00;2.00;;;;;12.65;71.34;100779.16;5047328;28;45489;-59
2022/12/24 10:23:16;;;;;;;;;4.00;2.00;;;;;12.64;71.56;100771.31;5045585;28;45597;-59
2022/12/24 10:25:51;;;;;;;;;3.33;3.33;;;;;12.65;71.42;100775.66;5052556;28;45513;-59
2022/12/24 10:28:21;;;;;;;;;2.00;2.00;;;;;12.66;71.48;100780.88;5047832;28;45748;-60
2022/12/24 10:30:56;;;;;;;;;2.33;2.00;;;;;12.64;71.76;100774.81;5045827;28;45609;-59
2022/12/24 10:33:31;;;;;;;;;2.33;2.33;;;;;12.51;71.64;100750.69;5048029;28;45528;-58
2022/12/24 10:35:57;;;;;;;;;3.00;3.00;;;;;12.62;71.57;100771.38;5040975;28;45402;-59
2022/12/24 10:38:23;;;;;;;;;3.00;1.67;;;;;12.58;71.86;100765.38;5054977;28;45637;-58
2022/12/24 10:40:54;;;;;;;;;1.67;1.67;;;;;12.65;71.72;100767.75;5053737;28;47674;-59
2022/12/24 10:43:24;;;;;;;;;3.67;1.67;;;;;12.63;71.59;100770.47;5055228;28;45476;-59
2022/12/24 10:46:01;;;;;;;;;3.00;3.00;;;;;12.59;71.35;100768.84;5055204;28;45472;-58
2022/12/24 10:48:29;;;;;;;;;3.00;3.00;;;;;12.57;71.98;100758.38;5055269;28;45560;-59
2022/12/24 10:51:04;;;;;;;;;2.67;2.00;;;;;12.63;71.79;100764.31;5054589;28;46477;-58
2022/12/24 10:53:40;;;;;;;;;2.00;2.00;;;;;12.66;72.41;100783.53;5054936;28;45526;-59
2022/12/24 10:56:11;;;;;;;;;2.00;2.00;;;;;12.67;71.75;100763.28;5055242;28;45543;-59
2022/12/24 10:58:42;;;;;;;;;3.00;2.00;;;;;12.68;71.30;100770.25;5054311;28;45454;-58
2022/12/24 11:01:08;;;;;;;;;1.00;1.00;;;;;12.65;71.57;100763.31;5042785;28;46604;-58
2022/12/24 11:03:35;;;;;;;;;2.00;2.00;;;;;12.68;71.26;100757.06;5054863;28;45434;-59
2022/12/24 11:06:07;;;;;;;;;0.67;0.67;;;;;12.69;71.05;100761.44;5044777;28;45545;-59
2022/12/24 11:08:34;;;;;;;;;2.33;1.00;;;;;12.65;71.59;100746.63;5055031;28;45557;-58
2022/12/24 11:11:04;;;;;;;;;2.00;2.00;;;;;12.72;71.48;100754.25;5053242;28;45931;-59
2022/12/24 11:13:45;;;;;;;;;0.33;0.33;;;;;12.71;71.67;100747.25;5054478;28;45497;-59
2022/12/24 11:16:32;;;;;;;;;4.67;2.00;;;;;12.74;71.44;100748.91;5054761;28;45504;-59
2022/12/24 11:19:01;;;;;;;;;1.00;1.00;;;;;12.75;71.09;100756.75;5053420;28;45501;-59
2022/12/24 11:21:39;;;;;;;;;2.00;2.00;;;;;12.76;71.93;100750.56;5046259;28;46636;-58
2022/12/24 11:24:12;;;;;;;;;4.33;2.00;;;;;12.83;71.36;100754.63;5051826;28;45539;-62
2022/12/24 11:26:40;;;;;;;;;1.67;1.00;;;;;12.82;71.46;100752.94;5039641;28;45589;-58
2022/12/24 11:29:26;;;;;;;;;3.00;2.00;;;;;12.80;70.79;100741.56;5045350;28;45497;-63
2022/12/24 11:32:14;;;;;;;;;1.33;1.33;;;;;12.87;71.12;100754.50;5044286;28;46547;-57
2022/12/24 11:34:42;;;;;;;;;1.00;1.00;;;;;12.90;71.10;100757.03;5054252;28;45445;-57
2022/12/24 11:37:20;;;;;;;;;4.00;3.00;;;;;12.89;71.46;100753.53;5050331;28;45557;-59
2022/12/24 11:39:52;;;;;;;;;2.00;0.67;;;;;12.90;71.87;100752.63;5045893;28;45585;-59